Baltic Advance — C4FU2 — position and weather

sailwx.info

Track history (hours):
 
Tides and Currents Weather Stations Pressure Air Temp Water Temp Dewpoint Dewpoint Depression Visibility Wind Speed Wind Dir Waves Ship Positions

Baltic Advance

Last reported at 2018-Feb-25 10:05 UTC. Time now 2018-Feb-26 01:45 UTC.
Position N 51°43' E 002°31'.

Length 181 m; draft 6.5 m.

Type: Ship. MMSI: 212182000.

Date/timePositionNaut miles runAvg speedWind from/ knotsBaromVisibWave heightAir tempDewpointWater temp
2018-Feb-25 10:05N 51°43' E 002°31'212.8
2018-Feb-25 09:56N 51°42' E 002°29'512.8
2018-Feb-25 09:31N 51°38' E 002°24'712.7
2018-Feb-25 09:00N 51°33' E 002°17'612.5
2018-Feb-25 08:30N 51°28' E 002°11'612.3
2018-Feb-25 08:00N 51°22' E 002°07'712.8
2018-Feb-25 07:29N 51°16' E 002°06'510.8
2018-Feb-25 06:59N 51°12' E 002°00'811.8
2018-Feb-25 06:17N 51°08' E 001°48'412.0
2018-Feb-25 05:59N 51°06' E 001°44'612.1
2018-Feb-25 05:29N 51°01' E 001°37'7110.5
2018-Feb-24 22:41N 50°18' E 000°07'210.1
2018-Feb-24 22:30N 50°18' E 000°05'5 9.8
2018-Feb-24 22:00N 50°16' W 000°03'510.2
2018-Feb-24 21:30N 50°12' W 000°07'510.2
2018-Feb-24 21:00N 50°08' W 000°12'510.3
2018-Feb-24 20:30N 50°03' W 000°15'510.3
2018-Feb-24 20:00N 49°59' W 000°20'510.6
2018-Feb-24 19:30N 49°54' W 000°24'611.4
2018-Feb-24 19:00N 49°49' W 000°24'612.0
2018-Feb-24 18:30N 49°43' W 000°24'611.8
2018-Feb-24 18:00N 49°37' W 000°24'510.4
2018-Feb-24 17:30N 49°33' W 000°20'612.9
2018-Feb-24 17:00N 49°31' W 000°10'612.4
2018-Feb-24 16:30N 49°28' W 000°01'510.7
2018-Feb-24 16:00N 49°26' E 000°06'611.0
2018-Feb-24 15:30N 49°26' E 000°15'510.6
2018-Feb-24 15:00N 49°27' E 000°23'4 7.9
2018-Feb-24 14:30N 49°28' E 000°28'3 5.7
2018-Feb-24 14:00N 49°28' E 000°32'4 8.6
2018-Feb-24 13:30N 49°27' E 000°39'611.0
2018-Feb-24 13:00N 49°31' E 000°43'510.3
2018-Feb-24 12:30N 49°28' E 000°49'5 9.0
2018-Feb-24 12:00N 49°24' E 000°51'510.7
2018-Feb-24 11:30N 49°29' E 000°53'5 9.5
2018-Feb-24 11:00N 49°24' E 000°56'4 7.7
2018-Feb-24 10:30N 49°21' E 000°59'2 3.0
2018-Feb-24 09:58N 49°23' E 001°00'0 0.0
2018-Feb-24 09:28N 49°23' E 001°00'0 0.0
2018-Feb-24 08:58N 49°23' E 001°00'0 0.0
2018-Feb-24 08:28N 49°23' E 001°00'0 0.0
2018-Feb-24 08:00N 49°23' E 001°00'0 0.0
2018-Feb-24 07:27N 49°23' E 001°00'0 0.0
2018-Feb-24 07:00N 49°23' E 001°00'0 0.0
2018-Feb-24 06:30N 49°23' E 001°00'0 0.0
2018-Feb-24 05:59N 49°23' E 001°00'0 0.0
2018-Feb-24 05:29N 49°23' E 001°00'0 0.0
2018-Feb-24 04:59N 49°23' E 001°00'0 0.0
2018-Feb-24 04:29N 49°23' E 001°00'0 0.0
2018-Feb-24 04:00N 49°23' E 001°00'0 0.0
2018-Feb-24 03:29N 49°23' E 001°00'0 0.0
2018-Feb-24 02:59N 49°23' E 001°00'0 0.0
2018-Feb-24 02:29N 49°23' E 001°00'0 0.0
2018-Feb-24 01:59N 49°23' E 001°00'0 0.0
2018-Feb-24 01:28N 49°23' E 001°00'0 0.0
2018-Feb-24 00:58N 49°23' E 001°00'0 0.0
2018-Feb-24 00:28N 49°23' E 001°00'0 0.0
2018-Feb-24 00:00N 49°23' E 001°00'0 0.0
2018-Feb-23 23:31N 49°23' E 001°00'0 0.0
2018-Feb-23 22:59N 49°23' E 001°00'0 0.0
2018-Feb-23 22:29N 49°23' E 001°00'0 0.0
2018-Feb-23 22:00N 49°23' E 001°00'0 0.0
2018-Feb-23 21:31N 49°23' E 001°00'0 0.3
2018-Feb-23 21:01N 49°22' E 001°01'0 0.3
2018-Feb-23 20:30N 49°23' E 001°00'0 0.0
2018-Feb-23 20:00N 49°23' E 001°00'0 0.0
2018-Feb-23 19:30N 49°23' E 001°00'0 0.0
2018-Feb-23 19:01N 49°23' E 001°00'0 0.0
2018-Feb-23 18:30N 49°23' E 001°00'0 0.0
2018-Feb-23 18:00N 49°23' E 001°00'0 0.0
2018-Feb-23 17:30N 49°23' E 001°00'0 0.0
2018-Feb-23 17:00N 49°23' E 001°00'0 0.0
2018-Feb-23 16:31N 49°23' E 001°00'0 0.0
2018-Feb-23 16:00N 49°23' E 001°00'0 0.0
2018-Feb-23 15:31N 49°23' E 001°00'0 0.0
2018-Feb-23 15:00N 49°23' E 001°00'0 0.0
2018-Feb-23 14:29N 49°23' E 001°00'0 0.0
2018-Feb-23 14:00N 49°23' E 001°00'0 0.0
2018-Feb-23 13:30N 49°23' E 001°00'0 0.0
2018-Feb-23 13:00N 49°23' E 001°00'0 0.0
2018-Feb-23 12:30N 49°23' E 001°00'0 0.0
2018-Feb-23 12:01N 49°23' E 001°00'0 0.0
2018-Feb-23 11:31N 49°23' E 001°00'0 0.0
2018-Feb-23 11:00N 49°23' E 001°00'0 0.0
2018-Feb-23 10:31N 49°23' E 001°00'0 0.0
2018-Feb-23 10:01N 49°23' E 001°00'0 0.0
2018-Feb-23 09:30N 49°23' E 001°00'0 0.0
2018-Feb-23 09:00N 49°23' E 001°00'0 0.0
2018-Feb-23 08:30N 49°23' E 001°00'0 0.0
2018-Feb-23 08:00N 49°23' E 001°00'0 0.0
2018-Feb-23 07:30N 49°23' E 001°00'0 0.0
2018-Feb-23 07:01N 49°23' E 001°00'0 0.0
2018-Feb-23 06:31N 49°23' E 001°00'0 0.0
2018-Feb-23 06:01N 49°23' E 001°00'0 0.0
2018-Feb-23 05:31N 49°23' E 001°00'0 0.0
2018-Feb-23 05:01N 49°23' E 001°00'0 0.0
2018-Feb-23 04:30N 49°23' E 001°00'0 0.0
2018-Feb-23 04:01N 49°23' E 001°00'0 0.0
2018-Feb-23 03:31N 49°23' E 001°00'0 0.0
2018-Feb-23 03:01N 49°23' E 001°00'0 0.0
2018-Feb-23 02:30N 49°23' E 001°00'0 0.0
2018-Feb-23 02:00N 49°23' E 001°00'0 0.0
2018-Feb-23 01:30N 49°23' E 001°00'0 0.0
2018-Feb-23 01:00N 49°23' E 001°00'0 0.0
2018-Feb-23 00:31N 49°23' E 001°00'0 0.0
2018-Feb-23 00:01N 49°23' E 001°00'0 0.0
2018-Feb-22 23:30N 49°23' E 001°00'0 0.0
2018-Feb-22 23:00N 49°23' E 001°00'0 0.0
2018-Feb-22 22:30N 49°23' E 001°00'0 0.0
2018-Feb-22 22:00N 49°23' E 001°00'0 0.0
2018-Feb-22 21:31N 49°23' E 001°00'0 0.0
2018-Feb-22 21:01N 49°23' E 001°00'0 0.0
2018-Feb-22 20:30N 49°23' E 001°00'0 0.0
2018-Feb-22 20:00N 49°23' E 001°00'0 0.0
2018-Feb-22 19:30N 49°23' E 001°00'0 0.0
2018-Feb-22 19:01N 49°23' E 001°00'0 0.0
2018-Feb-22 18:31N 49°23' E 001°00'0 0.0
2018-Feb-22 18:01N 49°23' E 001°00'0 0.0
2018-Feb-22 17:31N 49°23' E 001°00'0 0.0
2018-Feb-22 17:00N 49°23' E 001°00'0 0.0
2018-Feb-22 16:30N 49°23' E 001°00'0 0.0
2018-Feb-22 16:01N 49°23' E 001°00'0 0.0
2018-Feb-22 15:30N 49°23' E 001°00'0 0.0
2018-Feb-22 15:00N 49°23' E 001°00'0 0.0
2018-Feb-22 14:30N 49°23' E 001°00'0 0.0
2018-Feb-22 14:01N 49°23' E 001°00'0 0.0
2018-Feb-22 13:31N 49°23' E 001°00'0 0.0
2018-Feb-22 13:00N 49°23' E 001°00'0 0.0
2018-Feb-22 12:31N 49°23' E 001°00'0 0.0
2018-Feb-22 12:01N 49°23' E 001°00'0 0.0
2018-Feb-22 11:30N 49°23' E 001°00'1 1.2
2018-Feb-22 11:01N 49°22' E 001°00'1 1.1
2018-Feb-22 10:31N 49°23' E 001°00'1 1.8
2018-Feb-22 10:00N 49°22' E 001°01'1 1.8
2018-Feb-22 09:30N 49°23' E 001°00'0 0.0
2018-Feb-22 09:00N 49°23' E 001°00'0 0.0
2018-Feb-22 08:30N 49°23' E 001°00'0 0.0
2018-Feb-22 08:00N 49°23' E 001°00'0 0.0
2018-Feb-22 07:30N 49°23' E 001°00'0 0.0
2018-Feb-22 07:00N 49°23' E 001°00'0 0.0
2018-Feb-22 06:30N 49°23' E 001°00'0 0.0
2018-Feb-22 06:00N 49°23' E 001°00'0 0.0
2018-Feb-22 05:30N 49°23' E 001°00'0 0.0
2018-Feb-22 05:01N 49°23' E 001°00'0 0.0
2018-Feb-22 04:30N 49°23' E 001°00'0 0.0
2018-Feb-22 03:59N 49°23' E 001°00'0 0.0
2018-Feb-22 03:30N 49°23' E 001°00'0 0.0
2018-Feb-22 03:00N 49°23' E 001°00'0 0.0
2018-Feb-22 02:30N 49°23' E 001°00'0 0.0
2018-Feb-22 02:00N 49°23' E 001°00'0 0.0
2018-Feb-22 01:30N 49°23' E 001°00'0 0.0
2018-Feb-22 01:00N 49°23' E 001°00'0 0.0
2018-Feb-22 00:30N 49°23' E 001°00'0 0.0
2018-Feb-22 00:00N 49°23' E 001°00'0 0.0
2018-Feb-21 23:30N 49°23' E 001°00'0 0.0
2018-Feb-21 23:00N 49°23' E 001°00'0 0.0
2018-Feb-21 22:30N 49°23' E 001°00'0 0.0
2018-Feb-21 22:00N 49°23' E 001°00'0 0.0
2018-Feb-21 21:30N 49°23' E 001°00'0 0.0
2018-Feb-21 21:00N 49°23' E 001°00'0 0.0
2018-Feb-21 20:30N 49°23' E 001°00'0 0.0
2018-Feb-21 20:00N 49°23' E 001°00'0 0.0
2018-Feb-21 19:30N 49°23' E 001°00'0 0.0
2018-Feb-21 19:00N 49°23' E 001°00'0 0.0
2018-Feb-21 18:30N 49°23' E 001°00'0 0.0
2018-Feb-21 18:00N 49°23' E 001°00'0 0.0
2018-Feb-21 17:30N 49°23' E 001°00'0 0.0
2018-Feb-21 17:00N 49°23' E 001°00'2 3.3
2018-Feb-21 16:30N 49°21' E 000°59'3 6.4
2018-Feb-21 16:00N 49°23' E 000°55'510.0
2018-Feb-21 15:30N 49°28' E 000°56'3 6.9
2018-Feb-21 15:00N 49°26' E 000°52'2 4.9
2018-Feb-21 14:30N 49°25' E 000°48'4 8.2
2018-Feb-21 14:00N 49°29' E 000°47'4 8.4
2018-Feb-21 13:30N 49°31' E 000°41'611.5
2018-Feb-21 13:00N 49°26' E 000°37'510.5
2018-Feb-21 12:31N 49°29' E 000°31'612.0
2018-Feb-21 12:00N 49°26' E 000°22'612.6
2018-Feb-21 11:30N 49°26' E 000°13'612.0
2018-Feb-21 11:00N 49°27' E 000°04'5 9.8
2018-Feb-21 10:30N 49°28' W 000°03'3 6.6
2018-Feb-21 10:00N 49°30' W 000°08'4 7.6
2018-Feb-21 09:30N 49°31' W 000°14'510.3
2018-Feb-21 09:00N 49°33' W 000°21'5 9.5
2018-Feb-21 08:30N 49°35' W 000°28'5 9.4
2018-Feb-21 08:00N 49°39' W 000°29'510.5
2018-Feb-21 07:30N 49°45' W 000°29'510.4
2018-Feb-21 07:00N 49°50' W 000°29'612.4
2018-Feb-21 06:30N 49°56' W 000°28'612.1
2018-Feb-21 06:01N 50°01' W 000°23'713.5
2018-Feb-21 05:30N 50°08' W 000°20'1413.5
2018-Feb-21 04:28N 50°21' W 000°14'612.1
2018-Feb-21 04:00N 50°27' W 000°11'714.6
2018-Feb-21 03:30N 50°28' W 000°01'714.1
2018-Feb-21 03:00N 50°30' E 000°10'713.7
2018-Feb-21 02:30N 50°32' E 000°21'713.2
2018-Feb-21 02:00N 50°34' E 000°31'612.3
2018-Feb-21 01:30N 50°36' E 000°39'612.5
2018-Feb-21 01:00N 50°41' E 000°46'612.7
2018-Feb-21 00:30N 50°45' E 000°53'713.0
2018-Feb-20 23:59N 50°50' E 001°01'713.9
2018-Feb-20 23:30N 50°54' E 001°09'715.0
2018-Feb-20 23:00N 50°59' E 001°18'816.6
2018-Feb-20 22:30N 51°04' E 001°28'917.2
2018-Feb-20 22:00N 51°10' E 001°39'816.0
2018-Feb-20 21:30N 51°16' E 001°47'815.1
2018-Feb-20 21:01N 51°23' E 001°52'813.9
2018-Feb-20 20:28N 51°29' E 001°59'613.4
2018-Feb-20 20:00N 51°34' E 002°05'713.0
2018-Feb-20 19:29N 51°39' E 002°13'47012.2
2018-Feb-19 04:52N 57°50' E 010°32'511.1
2018-Feb-19 04:28N 57°50' E 010°41'510.4
2018-Feb-19 04:01N 57°47' E 010°48'612.1
2018-Feb-19 03:30N 57°43' E 010°56'612.7
2018-Feb-19 03:00N 57°38' E 011°05'713.1
2018-Feb-19 02:30N 57°34' E 011°14'612.5
2018-Feb-19 02:01N 57°30' E 011°23'712.3
2018-Feb-19 01:28N 57°24' E 011°28'612.6
2018-Feb-19 01:00N 57°18' E 011°32'712.6
2018-Feb-19 00:27N 57°12' E 011°36'612.7
2018-Feb-19 00:01N 57°07' E 011°40'712.7
2018-Feb-18 23:26N 57°00' E 011°45'10111.7
2018-Feb-18 14:48N 55°22' E 011°02'613.5
2018-Feb-18 14:20N 55°16' E 011°05'412.7
2018-Feb-18 14:00N 55°12' E 011°05'612.6
2018-Feb-18 13:30N 55°06' E 010°59'713.4
2018-Feb-18 13:00N 54°60' E 010°59'713.5
2018-Feb-18 12:30N 54°54' E 010°51'713.8
2018-Feb-18 12:00N 54°47' E 010°50'611.9
2018-Feb-18 11:30N 54°42' E 010°47'510.7
2018-Feb-18 11:00N 54°38' E 010°54'612.2
2018-Feb-18 10:30N 54°36' E 011°04'612.7
2018-Feb-18 10:00N 54°35' E 011°14'713.2
2018-Feb-18 09:30N 54°32' E 011°25'612.8
2018-Feb-18 09:00N 54°29' E 011°35'612.6
2018-Feb-18 08:30N 54°27' E 011°45'612.5
2018-Feb-18 08:00N 54°26' E 011°55'612.7
2018-Feb-18 07:30N 54°26' E 012°06'1311.0
2018-Feb-18 06:18N 54°38' E 012°18'1312.6
2018-Feb-18 05:17N 54°45' E 012°36'4512.8
2018-Feb-18 01:44N 55°01' E 013°50'1412.4
2018-Feb-18 00:34N 55°09' E 014°11'612.8
2018-Feb-18 00:05N 55°13' E 014°18'212.8
2018-Feb-17 23:55N 55°15' E 014°21'512.9
2018-Feb-17 23:30N 55°19' E 014°27'713.0
2018-Feb-17 23:00N 55°24' E 014°34'712.8
2018-Feb-17 22:30N 55°28' E 014°44'812.9
2018-Feb-17 21:55N 55°31' E 014°55'512.8
2018-Feb-17 21:30N 55°34' E 015°04'612.8
2018-Feb-17 21:00N 55°36' E 015°14'612.8
2018-Feb-17 20:30N 55°38' E 015°25'612.7
2018-Feb-17 20:00N 55°40' E 015°35'612.8
2018-Feb-17 19:30N 55°42' E 015°46'612.7
2018-Feb-17 19:00N 55°44' E 015°57'612.9
2018-Feb-17 18:30N 55°45' E 016°08'612.8
2018-Feb-17 18:00N 55°47' E 016°19'612.9
2018-Feb-17 17:30N 55°49' E 016°30'612.9
2018-Feb-17 17:00N 55°50' E 016°41'30012.3
2018-Feb-16 16:40N 59°34' E 022°56'213.5
2018-Feb-16 16:30N 59°35' E 023°00'713.2
2018-Feb-16 16:00N 59°36' E 023°13'713.2
2018-Feb-16 15:30N 59°38' E 023°26'713.1
2018-Feb-16 15:00N 59°40' E 023°38'713.3
2018-Feb-16 14:30N 59°42' E 023°51'713.3
2018-Feb-16 14:00N 59°44' E 024°03'612.8
2018-Feb-16 13:30N 59°45' E 024°16'713.1
2018-Feb-16 12:58N 59°47' E 024°29'613.2
2018-Feb-16 12:30N 59°48' E 024°41'612.9
2018-Feb-16 12:00N 59°49' E 024°54'612.8
2018-Feb-16 11:30N 59°51' E 025°06'713.1
2018-Feb-16 11:00N 59°52' E 025°19'713.6
2018-Feb-16 10:30N 59°54' E 025°32'2113.6
2018-Feb-16 08:58N 59°59' E 026°13'612.8
2018-Feb-16 08:28N 60°00' E 026°25'612.6
2018-Feb-16 08:00N 60°01' E 026°37'712.2
2018-Feb-16 07:26N 60°00' E 026°50'714.9
2018-Feb-16 07:00N 59°59' E 027°03'612.3
2018-Feb-16 06:28N 60°03' E 027°14'611.9
2018-Feb-16 06:00N 60°06' E 027°24'510.3
2018-Feb-16 05:29N 60°09' E 027°33'4 7.6
2018-Feb-16 05:00N 60°10' E 027°39'3 5.0
2018-Feb-16 04:30N 60°12' E 027°44'4 7.4
2018-Feb-16 04:00N 60°14' E 027°50'3 6.3
2018-Feb-16 03:30N 60°16' E 027°54'5 8.8
2018-Feb-16 02:57N 60°20' E 027°59'510.3
2018-Feb-16 02:29N 60°24' E 028°05'3 5.7
2018-Feb-16 02:00N 60°25' E 028°10'3 6.7
2018-Feb-16 01:30N 60°27' E 028°16'  
Track history (hours):
 
Tides and Currents Weather Stations Pressure Air Temp Water Temp Dewpoint Dewpoint Depression Visibility Wind Speed Wind Dir Waves Ship Positions

Baltic Advance

Last reported at 2018-Feb-25 10:05 UTC. Time now 2018-Feb-26 01:45 UTC.
Position N 51°43' E 002°31'.

Length 181 m; draft 6.5 m.

Type: Ship. MMSI: 212182000.

Date/timePositionNaut miles runAvg speedWind from/ knotsBaromVisibWave heightAir tempDewpointWater temp
2018-Feb-25 10:05N 51°43' E 002°31'212.8
2018-Feb-25 09:56N 51°42' E 002°29'512.8
2018-Feb-25 09:31N 51°38' E 002°24'712.7
2018-Feb-25 09:00N 51°33' E 002°17'612.5
2018-Feb-25 08:30N 51°28' E 002°11'612.3
2018-Feb-25 08:00N 51°22' E 002°07'712.8
2018-Feb-25 07:29N 51°16' E 002°06'510.8
2018-Feb-25 06:59N 51°12' E 002°00'811.8
2018-Feb-25 06:17N 51°08' E 001°48'412.0
2018-Feb-25 05:59N 51°06' E 001°44'612.1
2018-Feb-25 05:29N 51°01' E 001°37'7110.5
2018-Feb-24 22:41N 50°18' E 000°07'210.1
2018-Feb-24 22:30N 50°18' E 000°05'5 9.8
2018-Feb-24 22:00N 50°16' W 000°03'510.2
2018-Feb-24 21:30N 50°12' W 000°07'510.2
2018-Feb-24 21:00N 50°08' W 000°12'510.3
2018-Feb-24 20:30N 50°03' W 000°15'510.3
2018-Feb-24 20:00N 49°59' W 000°20'510.6
2018-Feb-24 19:30N 49°54' W 000°24'611.4
2018-Feb-24 19:00N 49°49' W 000°24'612.0
2018-Feb-24 18:30N 49°43' W 000°24'611.8
2018-Feb-24 18:00N 49°37' W 000°24'510.4
2018-Feb-24 17:30N 49°33' W 000°20'612.9
2018-Feb-24 17:00N 49°31' W 000°10'612.4
2018-Feb-24 16:30N 49°28' W 000°01'510.7
2018-Feb-24 16:00N 49°26' E 000°06'611.0
2018-Feb-24 15:30N 49°26' E 000°15'510.6
2018-Feb-24 15:00N 49°27' E 000°23'4 7.9
2018-Feb-24 14:30N 49°28' E 000°28'3 5.7
2018-Feb-24 14:00N 49°28' E 000°32'4 8.6
2018-Feb-24 13:30N 49°27' E 000°39'611.0
2018-Feb-24 13:00N 49°31' E 000°43'510.3
2018-Feb-24 12:30N 49°28' E 000°49'5 9.0
2018-Feb-24 12:00N 49°24' E 000°51'510.7
2018-Feb-24 11:30N 49°29' E 000°53'5 9.5
2018-Feb-24 11:00N 49°24' E 000°56'4 7.7
2018-Feb-24 10:30N 49°21' E 000°59'2 3.0
2018-Feb-24 09:58N 49°23' E 001°00'0 0.0
2018-Feb-24 09:28N 49°23' E 001°00'0 0.0
2018-Feb-24 08:58N 49°23' E 001°00'0 0.0
2018-Feb-24 08:28N 49°23' E 001°00'0 0.0
2018-Feb-24 08:00N 49°23' E 001°00'0 0.0
2018-Feb-24 07:27N 49°23' E 001°00'0 0.0
2018-Feb-24 07:00N 49°23' E 001°00'0 0.0
2018-Feb-24 06:30N 49°23' E 001°00'0 0.0
2018-Feb-24 05:59N 49°23' E 001°00'0 0.0
2018-Feb-24 05:29N 49°23' E 001°00'0 0.0
2018-Feb-24 04:59N 49°23' E 001°00'0 0.0
2018-Feb-24 04:29N 49°23' E 001°00'0 0.0
2018-Feb-24 04:00N 49°23' E 001°00'0 0.0
2018-Feb-24 03:29N 49°23' E 001°00'0 0.0
2018-Feb-24 02:59N 49°23' E 001°00'0 0.0
2018-Feb-24 02:29N 49°23' E 001°00'0 0.0
2018-Feb-24 01:59N 49°23' E 001°00'0 0.0
2018-Feb-24 01:28N 49°23' E 001°00'0 0.0
2018-Feb-24 00:58N 49°23' E 001°00'0 0.0
2018-Feb-24 00:28N 49°23' E 001°00'0 0.0
2018-Feb-24 00:00N 49°23' E 001°00'0 0.0
2018-Feb-23 23:31N 49°23' E 001°00'0 0.0
2018-Feb-23 22:59N 49°23' E 001°00'0 0.0
2018-Feb-23 22:29N 49°23' E 001°00'0 0.0
2018-Feb-23 22:00N 49°23' E 001°00'0 0.0
2018-Feb-23 21:31N 49°23' E 001°00'0 0.3
2018-Feb-23 21:01N 49°22' E 001°01'0 0.3
2018-Feb-23 20:30N 49°23' E 001°00'0 0.0
2018-Feb-23 20:00N 49°23' E 001°00'0 0.0
2018-Feb-23 19:30N 49°23' E 001°00'0 0.0
2018-Feb-23 19:01N 49°23' E 001°00'0 0.0
2018-Feb-23 18:30N 49°23' E 001°00'0 0.0
2018-Feb-23 18:00N 49°23' E 001°00'0 0.0
2018-Feb-23 17:30N 49°23' E 001°00'0 0.0
2018-Feb-23 17:00N 49°23' E 001°00'0 0.0
2018-Feb-23 16:31N 49°23' E 001°00'0 0.0
2018-Feb-23 16:00N 49°23' E 001°00'0 0.0
2018-Feb-23 15:31N 49°23' E 001°00'0 0.0
2018-Feb-23 15:00N 49°23' E 001°00'0 0.0
2018-Feb-23 14:29N 49°23' E 001°00'0 0.0
2018-Feb-23 14:00N 49°23' E 001°00'0 0.0
2018-Feb-23 13:30N 49°23' E 001°00'0 0.0
2018-Feb-23 13:00N 49°23' E 001°00'0 0.0
2018-Feb-23 12:30N 49°23' E 001°00'0 0.0
2018-Feb-23 12:01N 49°23' E 001°00'0 0.0
2018-Feb-23 11:31N 49°23' E 001°00'0 0.0
2018-Feb-23 11:00N 49°23' E 001°00'0 0.0
2018-Feb-23 10:31N 49°23' E 001°00'0 0.0
2018-Feb-23 10:01N 49°23' E 001°00'0 0.0
2018-Feb-23 09:30N 49°23' E 001°00'0 0.0
2018-Feb-23 09:00N 49°23' E 001°00'0 0.0
2018-Feb-23 08:30N 49°23' E 001°00'0 0.0
2018-Feb-23 08:00N 49°23' E 001°00'0 0.0
2018-Feb-23 07:30N 49°23' E 001°00'0 0.0
2018-Feb-23 07:01N 49°23' E 001°00'0 0.0
2018-Feb-23 06:31N 49°23' E 001°00'0 0.0
2018-Feb-23 06:01N 49°23' E 001°00'0 0.0
2018-Feb-23 05:31N 49°23' E 001°00'0 0.0
2018-Feb-23 05:01N 49°23' E 001°00'0 0.0
2018-Feb-23 04:30N 49°23' E 001°00'0 0.0
2018-Feb-23 04:01N 49°23' E 001°00'0 0.0
2018-Feb-23 03:31N 49°23' E 001°00'0 0.0
2018-Feb-23 03:01N 49°23' E 001°00'0 0.0
2018-Feb-23 02:30N 49°23' E 001°00'0 0.0
2018-Feb-23 02:00N 49°23' E 001°00'0 0.0
2018-Feb-23 01:30N 49°23' E 001°00'0 0.0
2018-Feb-23 01:00N 49°23' E 001°00'0 0.0
2018-Feb-23 00:31N 49°23' E 001°00'0 0.0
2018-Feb-23 00:01N 49°23' E 001°00'0 0.0
2018-Feb-22 23:30N 49°23' E 001°00'0 0.0
2018-Feb-22 23:00N 49°23' E 001°00'0 0.0
2018-Feb-22 22:30N 49°23' E 001°00'0 0.0
2018-Feb-22 22:00N 49°23' E 001°00'0 0.0
2018-Feb-22 21:31N 49°23' E 001°00'0 0.0
2018-Feb-22 21:01N 49°23' E 001°00'0 0.0
2018-Feb-22 20:30N 49°23' E 001°00'0 0.0
2018-Feb-22 20:00N 49°23' E 001°00'0 0.0
2018-Feb-22 19:30N 49°23' E 001°00'0 0.0
2018-Feb-22 19:01N 49°23' E 001°00'0 0.0
2018-Feb-22 18:31N 49°23' E 001°00'0 0.0
2018-Feb-22 18:01N 49°23' E 001°00'0 0.0
2018-Feb-22 17:31N 49°23' E 001°00'0 0.0
2018-Feb-22 17:00N 49°23' E 001°00'0 0.0
2018-Feb-22 16:30N 49°23' E 001°00'0 0.0
2018-Feb-22 16:01N 49°23' E 001°00'0 0.0
2018-Feb-22 15:30N 49°23' E 001°00'0 0.0
2018-Feb-22 15:00N 49°23' E 001°00'0 0.0
2018-Feb-22 14:30N 49°23' E 001°00'0 0.0
2018-Feb-22 14:01N 49°23' E 001°00'0 0.0
2018-Feb-22 13:31N 49°23' E 001°00'0 0.0
2018-Feb-22 13:00N 49°23' E 001°00'0 0.0
2018-Feb-22 12:31N 49°23' E 001°00'0 0.0
2018-Feb-22 12:01N 49°23' E 001°00'0 0.0
2018-Feb-22 11:30N 49°23' E 001°00'1 1.2
2018-Feb-22 11:01N 49°22' E 001°00'1 1.1
2018-Feb-22 10:31N 49°23' E 001°00'1 1.8
2018-Feb-22 10:00N 49°22' E 001°01'1 1.8
2018-Feb-22 09:30N 49°23' E 001°00'0 0.0
2018-Feb-22 09:00N 49°23' E 001°00'0 0.0
2018-Feb-22 08:30N 49°23' E 001°00'0 0.0
2018-Feb-22 08:00N 49°23' E 001°00'0 0.0
2018-Feb-22 07:30N 49°23' E 001°00'0 0.0
2018-Feb-22 07:00N 49°23' E 001°00'0 0.0
2018-Feb-22 06:30N 49°23' E 001°00'0 0.0
2018-Feb-22 06:00N 49°23' E 001°00'0 0.0
2018-Feb-22 05:30N 49°23' E 001°00'0 0.0
2018-Feb-22 05:01N 49°23' E 001°00'0 0.0
2018-Feb-22 04:30N 49°23' E 001°00'0 0.0
2018-Feb-22 03:59N 49°23' E 001°00'0 0.0
2018-Feb-22 03:30N 49°23' E 001°00'0 0.0
2018-Feb-22 03:00N 49°23' E 001°00'0 0.0
2018-Feb-22 02:30N 49°23' E 001°00'0 0.0
2018-Feb-22 02:00N 49°23' E 001°00'0 0.0
2018-Feb-22 01:30N 49°23' E 001°00'0 0.0
2018-Feb-22 01:00N 49°23' E 001°00'0 0.0
2018-Feb-22 00:30N 49°23' E 001°00'0 0.0
2018-Feb-22 00:00N 49°23' E 001°00'0 0.0
2018-Feb-21 23:30N 49°23' E 001°00'0 0.0
2018-Feb-21 23:00N 49°23' E 001°00'0 0.0
2018-Feb-21 22:30N 49°23' E 001°00'0 0.0
2018-Feb-21 22:00N 49°23' E 001°00'0 0.0
2018-Feb-21 21:30N 49°23' E 001°00'0 0.0
2018-Feb-21 21:00N 49°23' E 001°00'0 0.0
2018-Feb-21 20:30N 49°23' E 001°00'0 0.0
2018-Feb-21 20:00N 49°23' E 001°00'0 0.0
2018-Feb-21 19:30N 49°23' E 001°00'0 0.0
2018-Feb-21 19:00N 49°23' E 001°00'0 0.0
2018-Feb-21 18:30N 49°23' E 001°00'0 0.0
2018-Feb-21 18:00N 49°23' E 001°00'0 0.0
2018-Feb-21 17:30N 49°23' E 001°00'0 0.0
2018-Feb-21 17:00N 49°23' E 001°00'2 3.3
2018-Feb-21 16:30N 49°21' E 000°59'3 6.4
2018-Feb-21 16:00N 49°23' E 000°55'510.0
2018-Feb-21 15:30N 49°28' E 000°56'3 6.9
2018-Feb-21 15:00N 49°26' E 000°52'2 4.9
2018-Feb-21 14:30N 49°25' E 000°48'4 8.2
2018-Feb-21 14:00N 49°29' E 000°47'4 8.4
2018-Feb-21 13:30N 49°31' E 000°41'611.5
2018-Feb-21 13:00N 49°26' E 000°37'510.5
2018-Feb-21 12:31N 49°29' E 000°31'612.0
2018-Feb-21 12:00N 49°26' E 000°22'612.6
2018-Feb-21 11:30N 49°26' E 000°13'612.0
2018-Feb-21 11:00N 49°27' E 000°04'5 9.8
2018-Feb-21 10:30N 49°28' W 000°03'3 6.6
2018-Feb-21 10:00N 49°30' W 000°08'4 7.6
2018-Feb-21 09:30N 49°31' W 000°14'510.3
2018-Feb-21 09:00N 49°33' W 000°21'5 9.5
2018-Feb-21 08:30N 49°35' W 000°28'5 9.4
2018-Feb-21 08:00N 49°39' W 000°29'510.5
2018-Feb-21 07:30N 49°45' W 000°29'510.4
2018-Feb-21 07:00N 49°50' W 000°29'612.4
2018-Feb-21 06:30N 49°56' W 000°28'612.1
2018-Feb-21 06:01N 50°01' W 000°23'713.5
2018-Feb-21 05:30N 50°08' W 000°20'1413.5
2018-Feb-21 04:28N 50°21' W 000°14'612.1
2018-Feb-21 04:00N 50°27' W 000°11'714.6
2018-Feb-21 03:30N 50°28' W 000°01'714.1
2018-Feb-21 03:00N 50°30' E 000°10'713.7
2018-Feb-21 02:30N 50°32' E 000°21'713.2
2018-Feb-21 02:00N 50°34' E 000°31'612.3
2018-Feb-21 01:30N 50°36' E 000°39'612.5
2018-Feb-21 01:00N 50°41' E 000°46'612.7
2018-Feb-21 00:30N 50°45' E 000°53'713.0
2018-Feb-20 23:59N 50°50' E 001°01'713.9
2018-Feb-20 23:30N 50°54' E 001°09'715.0
2018-Feb-20 23:00N 50°59' E 001°18'816.6
2018-Feb-20 22:30N 51°04' E 001°28'917.2
2018-Feb-20 22:00N 51°10' E 001°39'816.0
2018-Feb-20 21:30N 51°16' E 001°47'815.1
2018-Feb-20 21:01N 51°23' E 001°52'813.9
2018-Feb-20 20:28N 51°29' E 001°59'613.4
2018-Feb-20 20:00N 51°34' E 002°05'713.0
2018-Feb-20 19:29N 51°39' E 002°13'47012.2
2018-Feb-19 04:52N 57°50' E 010°32'511.1
2018-Feb-19 04:28N 57°50' E 010°41'510.4
2018-Feb-19 04:01N 57°47' E 010°48'612.1
2018-Feb-19 03:30N 57°43' E 010°56'612.7
2018-Feb-19 03:00N 57°38' E 011°05'713.1
2018-Feb-19 02:30N 57°34' E 011°14'612.5
2018-Feb-19 02:01N 57°30' E 011°23'712.3
2018-Feb-19 01:28N 57°24' E 011°28'612.6
2018-Feb-19 01:00N 57°18' E 011°32'712.6
2018-Feb-19 00:27N 57°12' E 011°36'612.7
2018-Feb-19 00:01N 57°07' E 011°40'712.7
2018-Feb-18 23:26N 57°00' E 011°45'10111.7
2018-Feb-18 14:48N 55°22' E 011°02'613.5
2018-Feb-18 14:20N 55°16' E 011°05'412.7
2018-Feb-18 14:00N 55°12' E 011°05'612.6
2018-Feb-18 13:30N 55°06' E 010°59'713.4
2018-Feb-18 13:00N 54°60' E 010°59'713.5
2018-Feb-18 12:30N 54°54' E 010°51'713.8
2018-Feb-18 12:00N 54°47' E 010°50'611.9
2018-Feb-18 11:30N 54°42' E 010°47'510.7
2018-Feb-18 11:00N 54°38' E 010°54'612.2
2018-Feb-18 10:30N 54°36' E 011°04'612.7
2018-Feb-18 10:00N 54°35' E 011°14'713.2
2018-Feb-18 09:30N 54°32' E 011°25'612.8
2018-Feb-18 09:00N 54°29' E 011°35'612.6
2018-Feb-18 08:30N 54°27' E 011°45'612.5
2018-Feb-18 08:00N 54°26' E 011°55'612.7
2018-Feb-18 07:30N 54°26' E 012°06'1311.0
2018-Feb-18 06:18N 54°38' E 012°18'1312.6
2018-Feb-18 05:17N 54°45' E 012°36'4512.8
2018-Feb-18 01:44N 55°01' E 013°50'1412.4
2018-Feb-18 00:34N 55°09' E 014°11'612.8
2018-Feb-18 00:05N 55°13' E 014°18'212.8
2018-Feb-17 23:55N 55°15' E 014°21'512.9
2018-Feb-17 23:30N 55°19' E 014°27'713.0
2018-Feb-17 23:00N 55°24' E 014°34'712.8
2018-Feb-17 22:30N 55°28' E 014°44'812.9
2018-Feb-17 21:55N 55°31' E 014°55'512.8
2018-Feb-17 21:30N 55°34' E 015°04'612.8
2018-Feb-17 21:00N 55°36' E 015°14'612.8
2018-Feb-17 20:30N 55°38' E 015°25'612.7
2018-Feb-17 20:00N 55°40' E 015°35'612.8
2018-Feb-17 19:30N 55°42' E 015°46'612.7
2018-Feb-17 19:00N 55°44' E 015°57'612.9
2018-Feb-17 18:30N 55°45' E 016°08'612.8
2018-Feb-17 18:00N 55°47' E 016°19'612.9
2018-Feb-17 17:30N 55°49' E 016°30'612.9
2018-Feb-17 17:00N 55°50' E 016°41'30012.3
2018-Feb-16 16:40N 59°34' E 022°56'213.5
2018-Feb-16 16:30N 59°35' E 023°00'713.2
2018-Feb-16 16:00N 59°36' E 023°13'713.2
2018-Feb-16 15:30N 59°38' E 023°26'713.1
2018-Feb-16 15:00N 59°40' E 023°38'713.3
2018-Feb-16 14:30N 59°42' E 023°51'713.3
2018-Feb-16 14:00N 59°44' E 024°03'612.8
2018-Feb-16 13:30N 59°45' E 024°16'713.1
2018-Feb-16 12:58N 59°47' E 024°29'613.2
2018-Feb-16 12:30N 59°48' E 024°41'612.9
2018-Feb-16 12:00N 59°49' E 024°54'612.8
2018-Feb-16 11:30N 59°51' E 025°06'713.1
2018-Feb-16 11:00N 59°52' E 025°19'713.6
2018-Feb-16 10:30N 59°54' E 025°32'2113.6
2018-Feb-16 08:58N 59°59' E 026°13'612.8
2018-Feb-16 08:28N 60°00' E 026°25'612.6
2018-Feb-16 08:00N 60°01' E 026°37'712.2
2018-Feb-16 07:26N 60°00' E 026°50'714.9
2018-Feb-16 07:00N 59°59' E 027°03'612.3
2018-Feb-16 06:28N 60°03' E 027°14'611.9
2018-Feb-16 06:00N 60°06' E 027°24'510.3
2018-Feb-16 05:29N 60°09' E 027°33'4 7.6
2018-Feb-16 05:00N 60°10' E 027°39'3 5.0
2018-Feb-16 04:30N 60°12' E 027°44'4 7.4
2018-Feb-16 04:00N 60°14' E 027°50'3 6.3
2018-Feb-16 03:30N 60°16' E 027°54'5 8.8
2018-Feb-16 02:57N 60°20' E 027°59'510.3
2018-Feb-16 02:29N 60°24' E 028°05'3 5.7
2018-Feb-16 02:00N 60°25' E 028°10'3 6.7
2018-Feb-16 01:30N 60°27' E 028°16'  

Dump ship's entire track history